sensor_id;sensor_type;location;lat;lon;timestamp;P1;durP1;ratioP1;P2;durP2;ratioP2
58360;SDS011;44164;44.954;10.068;2022-10-10T00:00:39;5.72;;;3.72;;
58360;SDS011;44164;44.954;10.068;2022-10-10T00:03:05;6.13;;;3.85;;
58360;SDS011;44164;44.954;10.068;2022-10-10T00:05:32;5.95;;;3.42;;
58360;SDS011;44164;44.954;10.068;2022-10-10T00:07:59;4.72;;;3.80;;
58360;SDS011;44164;44.954;10.068;2022-10-10T00:10:25;5.18;;;4.10;;
58360;SDS011;44164;44.954;10.068;2022-10-10T00:12:51;5.63;;;4.15;;
58360;SDS011;44164;44.954;10.068;2022-10-10T00:15:17;6.32;;;3.85;;
58360;SDS011;44164;44.954;10.068;2022-10-10T00:17:44;6.03;;;4.35;;
58360;SDS011;44164;44.954;10.068;2022-10-10T00:20:11;5.32;;;3.53;;
58360;SDS011;44164;44.954;10.068;2022-10-10T00:22:39;5.57;;;3.75;;
58360;SDS011;44164;44.954;10.068;2022-10-10T00:25:06;4.35;;;3.58;;
58360;SDS011;44164;44.954;10.068;2022-10-10T00:27:33;3.83;;;3.50;;
58360;SDS011;44164;44.954;10.068;2022-10-10T00:30:00;5.07;;;3.90;;
58360;SDS011;44164;44.954;10.068;2022-10-10T00:32:26;4.35;;;3.78;;
58360;SDS011;44164;44.954;10.068;2022-10-10T00:34:52;3.90;;;3.22;;
58360;SDS011;44164;44.954;10.068;2022-10-10T00:37:18;4.07;;;3.50;;
58360;SDS011;44164;44.954;10.068;2022-10-10T00:39:44;4.10;;;3.70;;
58360;SDS011;44164;44.954;10.068;2022-10-10T00:42:11;4.93;;;3.78;;
58360;SDS011;44164;44.954;10.068;2022-10-10T00:44:39;5.25;;;3.90;;
58360;SDS011;44164;44.954;10.068;2022-10-10T00:47:06;6.28;;;4.10;;
58360;SDS011;44164;44.954;10.068;2022-10-10T00:49:33;4.95;;;3.70;;
58360;SDS011;44164;44.954;10.068;2022-10-10T00:52:01;4.43;;;3.58;;
58360;SDS011;44164;44.954;10.068;2022-10-10T00:54:27;4.30;;;3.72;;
58360;SDS011;44164;44.954;10.068;2022-10-10T00:57:04;6.32;;;3.88;;
58360;SDS011;44164;44.954;10.068;2022-10-10T00:59:33;4.78;;;3.90;;
58360;SDS011;44164;44.954;10.068;2022-10-10T01:01:59;4.22;;;3.30;;
58360;SDS011;44164;44.954;10.068;2022-10-10T01:04:40;5.90;;;3.75;;
58360;SDS011;44164;44.954;10.068;2022-10-10T01:07:12;4.82;;;3.70;;
58360;SDS011;44164;44.954;10.068;2022-10-10T01:09:44;5.03;;;3.50;;
58360;SDS011;44164;44.954;10.068;2022-10-10T01:17:52;4.25;;;3.83;;
58360;SDS011;44164;44.954;10.068;2022-10-10T01:20:43;5.10;;;3.83;;
58360;SDS011;44164;44.954;10.068;2022-10-10T01:23:31;4.90;;;3.47;;
58360;SDS011;44164;44.954;10.068;2022-10-10T01:26:36;4.38;;;3.97;;
58360;SDS011;44164;44.954;10.068;2022-10-10T01:32:00;4.85;;;3.50;;
58360;SDS011;44164;44.954;10.068;2022-10-10T01:39:48;4.57;;;3.80;;
58360;SDS011;44164;44.954;10.068;2022-10-10T01:42:24;4.53;;;3.53;;
58360;SDS011;44164;44.954;10.068;2022-10-10T01:45:04;5.55;;;3.50;;
58360;SDS011;44164;44.954;10.068;2022-10-10T01:47:30;3.83;;;3.42;;
58360;SDS011;44164;44.954;10.068;2022-10-10T01:49:58;4.85;;;3.70;;
58360;SDS011;44164;44.954;10.068;2022-10-10T01:55:10;4.53;;;3.60;;
58360;SDS011;44164;44.954;10.068;2022-10-10T02:00:30;4.85;;;3.33;;
58360;SDS011;44164;44.954;10.068;2022-10-10T02:08:27;5.18;;;4.05;;
58360;SDS011;44164;44.954;10.068;2022-10-10T02:11:00;4.82;;;4.32;;
58360;SDS011;44164;44.954;10.068;2022-10-10T02:13:40;4.40;;;3.60;;
58360;SDS011;44164;44.954;10.068;2022-10-10T02:16:19;7.22;;;3.72;;
58360;SDS011;44164;44.954;10.068;2022-10-10T02:18:48;5.80;;;3.85;;
58360;SDS011;44164;44.954;10.068;2022-10-10T02:23:42;4.28;;;3.45;;
58360;SDS011;44164;44.954;10.068;2022-10-10T02:26:11;5.80;;;3.55;;
58360;SDS011;44164;44.954;10.068;2022-10-10T02:31:19;4.57;;;3.45;;
58360;SDS011;44164;44.954;10.068;2022-10-10T02:33:51;3.80;;;3.40;;
58360;SDS011;44164;44.954;10.068;2022-10-10T02:36:21;5.28;;;3.60;;
58360;SDS011;44164;44.954;10.068;2022-10-10T02:38:48;4.25;;;3.67;;
58360;SDS011;44164;44.954;10.068;2022-10-10T02:41:15;3.85;;;3.30;;
58360;SDS011;44164;44.954;10.068;2022-10-10T02:46:09;5.28;;;3.45;;
58360;SDS011;44164;44.954;10.068;2022-10-10T02:48:38;4.25;;;3.05;;
58360;SDS011;44164;44.954;10.068;2022-10-10T02:51:04;4.47;;;3.30;;
58360;SDS011;44164;44.954;10.068;2022-10-10T02:53:31;3.90;;;3.17;;
58360;SDS011;44164;44.954;10.068;2022-10-10T02:55:58;4.25;;;3.42;;
58360;SDS011;44164;44.954;10.068;2022-10-10T02:58:24;3.63;;;2.70;;
58360;SDS011;44164;44.954;10.068;2022-10-10T03:00:50;4.95;;;3.05;;
58360;SDS011;44164;44.954;10.068;2022-10-10T03:03:16;4.43;;;3.35;;
58360;SDS011;44164;44.954;10.068;2022-10-10T03:05:43;3.83;;;3.30;;
58360;SDS011;44164;44.954;10.068;2022-10-10T03:08:09;5.18;;;3.13;;
58360;SDS011;44164;44.954;10.068;2022-10-10T03:10:35;4.82;;;3.42;;
58360;SDS011;44164;44.954;10.068;2022-10-10T03:13:01;4.80;;;3.28;;
58360;SDS011;44164;44.954;10.068;2022-10-10T03:15:27;4.85;;;3.60;;
58360;SDS011;44164;44.954;10.068;2022-10-10T03:17:53;3.72;;;3.28;;
58360;SDS011;44164;44.954;10.068;2022-10-10T03:20:19;4.07;;;3.47;;
58360;SDS011;44164;44.954;10.068;2022-10-10T03:22:45;4.57;;;3.05;;
58360;SDS011;44164;44.954;10.068;2022-10-10T03:25:12;3.78;;;3.30;;
58360;SDS011;44164;44.954;10.068;2022-10-10T03:27:38;5.47;;;3.45;;
58360;SDS011;44164;44.954;10.068;2022-10-10T03:30:04;5.13;;;3.30;;
58360;SDS011;44164;44.954;10.068;2022-10-10T03:32:30;5.53;;;3.20;;
58360;SDS011;44164;44.954;10.068;2022-10-10T03:34:56;4.18;;;3.15;;
58360;SDS011;44164;44.954;10.068;2022-10-10T03:37:23;4.00;;;3.47;;
58360;SDS011;44164;44.954;10.068;2022-10-10T03:39:49;6.75;;;3.95;;
58360;SDS011;44164;44.954;10.068;2022-10-10T03:42:15;5.82;;;3.50;;
58360;SDS011;44164;44.954;10.068;2022-10-10T03:44:41;5.18;;;3.45;;
58360;SDS011;44164;44.954;10.068;2022-10-10T03:47:07;4.47;;;3.17;;
58360;SDS011;44164;44.954;10.068;2022-10-10T03:49:33;4.18;;;3.05;;
58360;SDS011;44164;44.954;10.068;2022-10-10T03:51:59;4.03;;;3.05;;
58360;SDS011;44164;44.954;10.068;2022-10-10T03:54:26;3.75;;;2.90;;
58360;SDS011;44164;44.954;10.068;2022-10-10T03:56:52;4.63;;;3.38;;
58360;SDS011;44164;44.954;10.068;2022-10-10T03:59:18;4.75;;;3.38;;
58360;SDS011;44164;44.954;10.068;2022-10-10T04:01:44;3.83;;;3.40;;
58360;SDS011;44164;44.954;10.068;2022-10-10T04:04:10;4.05;;;3.30;;
58360;SDS011;44164;44.954;10.068;2022-10-10T04:06:36;3.95;;;3.17;;
58360;SDS011;44164;44.954;10.068;2022-10-10T04:09:02;3.67;;;3.28;;
58360;SDS011;44164;44.954;10.068;2022-10-10T04:11:29;3.92;;;3.33;;
58360;SDS011;44164;44.954;10.068;2022-10-10T04:13:55;4.45;;;2.90;;
58360;SDS011;44164;44.954;10.068;2022-10-10T04:16:21;4.32;;;3.38;;
58360;SDS011;44164;44.954;10.068;2022-10-10T04:18:47;4.50;;;3.25;;
58360;SDS011;44164;44.954;10.068;2022-10-10T04:21:13;3.30;;;2.92;;
58360;SDS011;44164;44.954;10.068;2022-10-10T04:23:39;4.20;;;3.30;;
58360;SDS011;44164;44.954;10.068;2022-10-10T04:26:06;4.57;;;2.97;;
58360;SDS011;44164;44.954;10.068;2022-10-10T04:28:32;3.33;;;2.80;;
58360;SDS011;44164;44.954;10.068;2022-10-10T04:30:58;4.03;;;3.50;;
58360;SDS011;44164;44.954;10.068;2022-10-10T04:33:24;6.30;;;3.45;;
58360;SDS011;44164;44.954;10.068;2022-10-10T04:35:50;4.47;;;3.53;;
58360;SDS011;44164;44.954;10.068;2022-10-10T04:38:17;6.15;;;3.50;;
58360;SDS011;44164;44.954;10.068;2022-10-10T04:40:46;6.70;;;3.70;;
58360;SDS011;44164;44.954;10.068;2022-10-10T04:43:13;7.97;;;4.50;;
58360;SDS011;44164;44.954;10.068;2022-10-10T04:45:39;6.90;;;4.53;;
58360;SDS011;44164;44.954;10.068;2022-10-10T04:48:05;7.72;;;5.05;;
58360;SDS011;44164;44.954;10.068;2022-10-10T04:50:31;12.88;;;5.78;;
58360;SDS011;44164;44.954;10.068;2022-10-10T04:52:58;13.30;;;5.53;;
58360;SDS011;44164;44.954;10.068;2022-10-10T04:55:24;10.93;;;5.53;;
58360;SDS011;44164;44.954;10.068;2022-10-10T04:57:50;10.57;;;5.18;;
58360;SDS011;44164;44.954;10.068;2022-10-10T05:00:16;9.57;;;6.68;;
58360;SDS011;44164;44.954;10.068;2022-10-10T05:02:42;7.75;;;5.55;;
58360;SDS011;44164;44.954;10.068;2022-10-10T05:05:08;9.13;;;5.97;;
58360;SDS011;44164;44.954;10.068;2022-10-10T05:07:35;10.02;;;4.97;;
58360;SDS011;44164;44.954;10.068;2022-10-10T05:10:01;12.55;;;5.60;;
58360;SDS011;44164;44.954;10.068;2022-10-10T05:12:27;11.93;;;6.35;;
58360;SDS011;44164;44.954;10.068;2022-10-10T05:14:53;17.05;;;6.68;;
58360;SDS011;44164;44.954;10.068;2022-10-10T05:17:19;13.57;;;6.93;;
58360;SDS011;44164;44.954;10.068;2022-10-10T05:19:46;14.20;;;5.95;;
58360;SDS011;44164;44.954;10.068;2022-10-10T05:22:12;11.40;;;5.85;;
58360;SDS011;44164;44.954;10.068;2022-10-10T05:24:38;11.52;;;5.75;;
58360;SDS011;44164;44.954;10.068;2022-10-10T05:27:05;14.98;;;5.72;;
58360;SDS011;44164;44.954;10.068;2022-10-10T05:29:31;11.77;;;5.75;;
58360;SDS011;44164;44.954;10.068;2022-10-10T05:31:57;11.57;;;6.32;;
58360;SDS011;44164;44.954;10.068;2022-10-10T05:34:23;12.25;;;5.30;;
58360;SDS011;44164;44.954;10.068;2022-10-10T05:36:49;9.27;;;5.32;;
58360;SDS011;44164;44.954;10.068;2022-10-10T05:39:15;11.40;;;5.78;;
58360;SDS011;44164;44.954;10.068;2022-10-10T05:41:42;7.68;;;5.38;;
58360;SDS011;44164;44.954;10.068;2022-10-10T05:44:08;6.55;;;5.13;;
58360;SDS011;44164;44.954;10.068;2022-10-10T05:46:34;9.77;;;4.78;;
58360;SDS011;44164;44.954;10.068;2022-10-10T05:49:00;12.30;;;5.68;;
58360;SDS011;44164;44.954;10.068;2022-10-10T05:51:27;8.00;;;5.88;;
58360;SDS011;44164;44.954;10.068;2022-10-10T05:53:53;8.77;;;4.60;;
58360;SDS011;44164;44.954;10.068;2022-10-10T05:56:19;7.93;;;4.45;;
58360;SDS011;44164;44.954;10.068;2022-10-10T05:58:45;7.07;;;4.35;;
58360;SDS011;44164;44.954;10.068;2022-10-10T06:01:12;6.50;;;4.22;;
58360;SDS011;44164;44.954;10.068;2022-10-10T06:03:38;6.43;;;4.03;;
58360;SDS011;44164;44.954;10.068;2022-10-10T06:06:04;6.72;;;3.78;;
58360;SDS011;44164;44.954;10.068;2022-10-10T06:08:30;4.80;;;3.78;;
58360;SDS011;44164;44.954;10.068;2022-10-10T06:11:04;4.38;;;3.55;;
58360;SDS011;44164;44.954;10.068;2022-10-10T06:13:32;6.90;;;3.53;;
58360;SDS011;44164;44.954;10.068;2022-10-10T06:15:58;7.15;;;3.67;;
58360;SDS011;44164;44.954;10.068;2022-10-10T06:18:25;5.18;;;3.33;;
58360;SDS011;44164;44.954;10.068;2022-10-10T06:20:51;9.95;;;4.15;;
58360;SDS011;44164;44.954;10.068;2022-10-10T06:23:17;6.78;;;3.75;;
58360;SDS011;44164;44.954;10.068;2022-10-10T06:25:44;5.63;;;3.47;;
58360;SDS011;44164;44.954;10.068;2022-10-10T06:28:11;5.40;;;3.88;;
58360;SDS011;44164;44.954;10.068;2022-10-10T06:30:43;5.57;;;3.17;;
58360;SDS011;44164;44.954;10.068;2022-10-10T06:33:10;6.38;;;3.78;;
58360;SDS011;44164;44.954;10.068;2022-10-10T06:35:37;4.60;;;3.72;;
58360;SDS011;44164;44.954;10.068;2022-10-10T06:38:05;8.52;;;2.83;;
58360;SDS011;44164;44.954;10.068;2022-10-10T06:40:31;4.60;;;3.20;;
58360;SDS011;44164;44.954;10.068;2022-10-10T06:42:57;6.45;;;3.72;;
58360;SDS011;44164;44.954;10.068;2022-10-10T06:45:23;6.32;;;3.47;;
58360;SDS011;44164;44.954;10.068;2022-10-10T06:47:50;6.22;;;3.95;;
58360;SDS011;44164;44.954;10.068;2022-10-10T06:50:16;5.57;;;3.50;;
58360;SDS011;44164;44.954;10.068;2022-10-10T06:52:42;5.25;;;3.13;;
58360;SDS011;44164;44.954;10.068;2022-10-10T06:55:08;6.00;;;3.58;;
58360;SDS011;44164;44.954;10.068;2022-10-10T06:57:34;6.03;;;3.35;;
58360;SDS011;44164;44.954;10.068;2022-10-10T07:00:00;4.22;;;3.67;;
58360;SDS011;44164;44.954;10.068;2022-10-10T07:02:27;4.75;;;3.05;;
58360;SDS011;44164;44.954;10.068;2022-10-10T07:04:53;6.90;;;3.95;;
58360;SDS011;44164;44.954;10.068;2022-10-10T07:07:19;7.03;;;3.42;;
58360;SDS011;44164;44.954;10.068;2022-10-10T07:09:45;5.20;;;3.72;;
58360;SDS011;44164;44.954;10.068;2022-10-10T07:12:11;5.63;;;3.22;;
58360;SDS011;44164;44.954;10.068;2022-10-10T07:14:37;5.72;;;3.33;;
58360;SDS011;44164;44.954;10.068;2022-10-10T07:17:03;7.38;;;3.63;;
58360;SDS011;44164;44.954;10.068;2022-10-10T07:19:30;6.30;;;3.35;;
58360;SDS011;44164;44.954;10.068;2022-10-10T07:21:56;4.63;;;3.00;;
58360;SDS011;44164;44.954;10.068;2022-10-10T07:24:22;5.18;;;3.30;;
58360;SDS011;44164;44.954;10.068;2022-10-10T07:26:48;10.68;;;3.85;;
58360;SDS011;44164;44.954;10.068;2022-10-10T07:29:14;4.70;;;3.15;;
58360;SDS011;44164;44.954;10.068;2022-10-10T07:31:42;6.72;;;3.42;;
58360;SDS011;44164;44.954;10.068;2022-10-10T07:34:09;5.82;;;3.50;;
58360;SDS011;44164;44.954;10.068;2022-10-10T07:36:35;8.60;;;3.67;;
58360;SDS011;44164;44.954;10.068;2022-10-10T07:39:01;5.88;;;3.80;;
58360;SDS011;44164;44.954;10.068;2022-10-10T07:41:27;4.25;;;3.22;;
58360;SDS011;44164;44.954;10.068;2022-10-10T07:43:54;6.15;;;3.78;;
58360;SDS011;44164;44.954;10.068;2022-10-10T07:46:20;4.28;;;3.15;;
58360;SDS011;44164;44.954;10.068;2022-10-10T07:48:47;5.68;;;3.17;;
58360;SDS011;44164;44.954;10.068;2022-10-10T07:51:14;5.38;;;3.25;;
58360;SDS011;44164;44.954;10.068;2022-10-10T07:53:40;4.15;;;2.72;;
58360;SDS011;44164;44.954;10.068;2022-10-10T07:56:07;6.38;;;4.20;;
58360;SDS011;44164;44.954;10.068;2022-10-10T07:58:34;5.63;;;3.50;;
58360;SDS011;44164;44.954;10.068;2022-10-10T08:01:04;5.30;;;3.22;;
58360;SDS011;44164;44.954;10.068;2022-10-10T08:03:35;6.95;;;3.92;;
58360;SDS011;44164;44.954;10.068;2022-10-10T08:06:02;5.53;;;3.10;;
58360;SDS011;44164;44.954;10.068;2022-10-10T08:08:33;3.58;;;2.85;;
58360;SDS011;44164;44.954;10.068;2022-10-10T08:11:03;4.78;;;3.20;;
58360;SDS011;44164;44.954;10.068;2022-10-10T08:13:29;4.68;;;3.08;;
58360;SDS011;44164;44.954;10.068;2022-10-10T08:15:56;6.22;;;3.47;;
58360;SDS011;44164;44.954;10.068;2022-10-10T08:18:22;4.70;;;3.40;;
58360;SDS011;44164;44.954;10.068;2022-10-10T08:20:56;4.90;;;3.65;;
58360;SDS011;44164;44.954;10.068;2022-10-10T08:23:27;5.80;;;3.55;;
58360;SDS011;44164;44.954;10.068;2022-10-10T08:25:55;5.13;;;3.40;;
58360;SDS011;44164;44.954;10.068;2022-10-10T08:28:23;5.32;;;3.20;;
58360;SDS011;44164;44.954;10.068;2022-10-10T08:30:49;6.82;;;4.00;;
58360;SDS011;44164;44.954;10.068;2022-10-10T08:33:15;4.82;;;3.38;;
58360;SDS011;44164;44.954;10.068;2022-10-10T08:35:42;4.20;;;2.97;;
58360;SDS011;44164;44.954;10.068;2022-10-10T08:38:08;7.55;;;3.55;;
58360;SDS011;44164;44.954;10.068;2022-10-10T08:40:41;6.13;;;4.40;;
58360;SDS011;44164;44.954;10.068;2022-10-10T08:43:10;5.38;;;3.20;;
58360;SDS011;44164;44.954;10.068;2022-10-10T08:45:46;5.60;;;3.22;;
58360;SDS011;44164;44.954;10.068;2022-10-10T08:48:14;6.25;;;3.03;;
58360;SDS011;44164;44.954;10.068;2022-10-10T08:50:42;5.47;;;3.63;;
58360;SDS011;44164;44.954;10.068;2022-10-10T08:55:40;6.65;;;3.40;;
58360;SDS011;44164;44.954;10.068;2022-10-10T09:01:06;4.97;;;3.10;;
58360;SDS011;44164;44.954;10.068;2022-10-10T09:03:56;5.70;;;3.38;;
58360;SDS011;44164;44.954;10.068;2022-10-10T09:09:07;3.85;;;2.78;;
58360;SDS011;44164;44.954;10.068;2022-10-10T09:17:02;5.95;;;4.00;;
58360;SDS011;44164;44.954;10.068;2022-10-10T09:22:24;6.60;;;4.40;;
58360;SDS011;44164;44.954;10.068;2022-10-10T09:24:54;8.70;;;3.95;;
58360;SDS011;44164;44.954;10.068;2022-10-10T09:27:23;7.63;;;4.07;;
58360;SDS011;44164;44.954;10.068;2022-10-10T09:29:57;11.45;;;4.85;;
58360;SDS011;44164;44.954;10.068;2022-10-10T09:32:41;6.93;;;4.03;;
58360;SDS011;44164;44.954;10.068;2022-10-10T09:37:50;7.20;;;4.53;;
58360;SDS011;44164;44.954;10.068;2022-10-10T09:40:23;6.13;;;4.25;;
58360;SDS011;44164;44.954;10.068;2022-10-10T09:42:52;7.22;;;4.53;;
58360;SDS011;44164;44.954;10.068;2022-10-10T09:47:57;7.90;;;4.78;;
58360;SDS011;44164;44.954;10.068;2022-10-10T09:50:23;8.15;;;5.18;;
58360;SDS011;44164;44.954;10.068;2022-10-10T09:52:50;8.00;;;4.85;;
58360;SDS011;44164;44.954;10.068;2022-10-10T10:00:27;9.88;;;4.32;;
58360;SDS011;44164;44.954;10.068;2022-10-10T10:05:33;11.07;;;4.32;;
58360;SDS011;44164;44.954;10.068;2022-10-10T10:07:59;7.55;;;4.43;;
58360;SDS011;44164;44.954;10.068;2022-10-10T10:10:26;9.25;;;5.43;;
58360;SDS011;44164;44.954;10.068;2022-10-10T10:12:53;11.98;;;4.28;;
58360;SDS011;44164;44.954;10.068;2022-10-10T10:20:36;7.05;;;3.50;;
58360;SDS011;44164;44.954;10.068;2022-10-10T10:23:03;6.88;;;3.13;;
58360;SDS011;44164;44.954;10.068;2022-10-10T10:25:32;6.93;;;3.30;;
58360;SDS011;44164;44.954;10.068;2022-10-10T10:30:37;5.10;;;3.25;;
58360;SDS011;44164;44.954;10.068;2022-10-10T10:36:06;6.10;;;3.38;;
58360;SDS011;44164;44.954;10.068;2022-10-10T10:38:39;5.00;;;3.58;;
58360;SDS011;44164;44.954;10.068;2022-10-10T10:43:49;5.05;;;3.17;;
58360;SDS011;44164;44.954;10.068;2022-10-10T11:05:38;5.03;;;3.47;;
58360;SDS011;44164;44.954;10.068;2022-10-10T11:16:49;5.75;;;3.25;;
58360;SDS011;44164;44.954;10.068;2022-10-10T11:19:28;4.78;;;3.13;;
58360;SDS011;44164;44.954;10.068;2022-10-10T11:22:07;4.10;;;2.92;;
58360;SDS011;44164;44.954;10.068;2022-10-10T11:24:42;4.63;;;3.38;;
58360;SDS011;44164;44.954;10.068;2022-10-10T11:27:14;4.55;;;3.30;;
58360;SDS011;44164;44.954;10.068;2022-10-10T11:29:50;5.72;;;3.33;;
58360;SDS011;44164;44.954;10.068;2022-10-10T11:32:30;4.80;;;3.28;;
58360;SDS011;44164;44.954;10.068;2022-10-10T11:35:06;6.20;;;3.40;;
58360;SDS011;44164;44.954;10.068;2022-10-10T11:37:40;5.85;;;3.35;;
58360;SDS011;44164;44.954;10.068;2022-10-10T11:40:27;5.63;;;3.33;;
58360;SDS011;44164;44.954;10.068;2022-10-10T11:42:59;8.57;;;4.00;;
58360;SDS011;44164;44.954;10.068;2022-10-10T11:45:31;4.50;;;3.30;;
58360;SDS011;44164;44.954;10.068;2022-10-10T11:48:06;6.18;;;3.35;;
58360;SDS011;44164;44.954;10.068;2022-10-10T11:50:41;9.57;;;3.95;;
58360;SDS011;44164;44.954;10.068;2022-10-10T12:04:13;6.88;;;3.10;;
58360;SDS011;44164;44.954;10.068;2022-10-10T12:06:41;5.32;;;2.97;;
58360;SDS011;44164;44.954;10.068;2022-10-10T12:14:27;8.52;;;4.07;;
58360;SDS011;44164;44.954;10.068;2022-10-10T12:16:56;7.07;;;3.22;;
58360;SDS011;44164;44.954;10.068;2022-10-10T12:19:23;5.60;;;3.03;;
58360;SDS011;44164;44.954;10.068;2022-10-10T12:24:21;4.95;;;3.10;;
58360;SDS011;44164;44.954;10.068;2022-10-10T12:37:20;5.60;;;3.17;;
58360;SDS011;44164;44.954;10.068;2022-10-10T12:42:36;5.70;;;3.15;;
58360;SDS011;44164;44.954;10.068;2022-10-10T12:47:56;5.93;;;2.88;;
58360;SDS011;44164;44.954;10.068;2022-10-10T12:50:24;6.63;;;3.53;;
58360;SDS011;44164;44.954;10.068;2022-10-10T12:53:03;5.22;;;3.13;;
58360;SDS011;44164;44.954;10.068;2022-10-10T12:55:42;5.72;;;3.22;;
58360;SDS011;44164;44.954;10.068;2022-10-10T12:58:13;4.75;;;3.10;;
58360;SDS011;44164;44.954;10.068;2022-10-10T13:00:42;5.60;;;3.47;;
58360;SDS011;44164;44.954;10.068;2022-10-10T13:05:38;5.63;;;3.33;;
58360;SDS011;44164;44.954;10.068;2022-10-10T13:08:06;5.30;;;3.05;;
58360;SDS011;44164;44.954;10.068;2022-10-10T13:10:36;4.45;;;3.00;;
58360;SDS011;44164;44.954;10.068;2022-10-10T13:13:04;4.53;;;3.28;;
58360;SDS011;44164;44.954;10.068;2022-10-10T13:15:32;3.47;;;2.22;;
58360;SDS011;44164;44.954;10.068;2022-10-10T13:17:59;5.80;;;2.67;;
58360;SDS011;44164;44.954;10.068;2022-10-10T13:20:27;4.50;;;3.10;;
58360;SDS011;44164;44.954;10.068;2022-10-10T13:23:05;4.95;;;2.72;;
58360;SDS011;44164;44.954;10.068;2022-10-10T13:25:33;4.18;;;2.63;;
58360;SDS011;44164;44.954;10.068;2022-10-10T13:28:00;4.10;;;2.72;;
58360;SDS011;44164;44.954;10.068;2022-10-10T13:30:26;4.78;;;2.60;;
58360;SDS011;44164;44.954;10.068;2022-10-10T13:32:52;4.45;;;2.63;;
58360;SDS011;44164;44.954;10.068;2022-10-10T13:37:54;5.43;;;2.60;;
58360;SDS011;44164;44.954;10.068;2022-10-10T13:40:22;3.17;;;2.28;;
58360;SDS011;44164;44.954;10.068;2022-10-10T13:42:48;4.30;;;3.20;;
58360;SDS011;44164;44.954;10.068;2022-10-10T13:47:51;4.68;;;2.80;;
58360;SDS011;44164;44.954;10.068;2022-10-10T13:50:35;4.78;;;2.95;;
58360;SDS011;44164;44.954;10.068;2022-10-10T13:58:25;3.78;;;2.55;;
58360;SDS011;44164;44.954;10.068;2022-10-10T14:03:21;4.30;;;2.38;;
58360;SDS011;44164;44.954;10.068;2022-10-10T14:05:48;6.15;;;2.97;;
58360;SDS011;44164;44.954;10.068;2022-10-10T14:08:15;5.53;;;2.67;;
58360;SDS011;44164;44.954;10.068;2022-10-10T14:10:53;3.95;;;2.90;;
58360;SDS011;44164;44.954;10.068;2022-10-10T14:13:30;3.63;;;2.63;;
58360;SDS011;44164;44.954;10.068;2022-10-10T14:18:56;4.22;;;2.60;;
58360;SDS011;44164;44.954;10.068;2022-10-10T14:21:22;5.70;;;2.65;;
58360;SDS011;44164;44.954;10.068;2022-10-10T14:23:49;4.60;;;2.33;;
58360;SDS011;44164;44.954;10.068;2022-10-10T14:26:16;5.40;;;3.00;;
58360;SDS011;44164;44.954;10.068;2022-10-10T14:28:43;4.53;;;2.80;;
58360;SDS011;44164;44.954;10.068;2022-10-10T14:31:10;4.57;;;2.67;;
58360;SDS011;44164;44.954;10.068;2022-10-10T14:33:37;5.73;;;2.97;;
58360;SDS011;44164;44.954;10.068;2022-10-10T14:36:04;4.60;;;2.60;;
58360;SDS011;44164;44.954;10.068;2022-10-10T14:38:30;3.72;;;2.63;;
58360;SDS011;44164;44.954;10.068;2022-10-10T14:40:57;4.55;;;2.60;;
58360;SDS011;44164;44.954;10.068;2022-10-10T14:43:23;3.65;;;2.38;;
58360;SDS011;44164;44.954;10.068;2022-10-10T14:45:50;4.43;;;3.17;;
58360;SDS011;44164;44.954;10.068;2022-10-10T14:48:17;5.20;;;3.10;;
58360;SDS011;44164;44.954;10.068;2022-10-10T14:50:45;4.28;;;2.92;;
58360;SDS011;44164;44.954;10.068;2022-10-10T14:53:12;3.78;;;2.58;;
58360;SDS011;44164;44.954;10.068;2022-10-10T14:55:41;4.43;;;3.08;;
58360;SDS011;44164;44.954;10.068;2022-10-10T15:00:40;5.88;;;3.10;;
58360;SDS011;44164;44.954;10.068;2022-10-10T15:03:07;6.68;;;3.15;;
58360;SDS011;44164;44.954;10.068;2022-10-10T15:05:33;8.70;;;2.53;;
58360;SDS011;44164;44.954;10.068;2022-10-10T15:07:59;4.15;;;2.70;;
58360;SDS011;44164;44.954;10.068;2022-10-10T15:10:26;3.85;;;2.40;;
58360;SDS011;44164;44.954;10.068;2022-10-10T15:12:52;5.03;;;2.40;;
58360;SDS011;44164;44.954;10.068;2022-10-10T15:15:18;6.10;;;2.70;;
58360;SDS011;44164;44.954;10.068;2022-10-10T15:17:44;6.55;;;3.20;;
58360;SDS011;44164;44.954;10.068;2022-10-10T15:20:10;4.65;;;2.63;;
58360;SDS011;44164;44.954;10.068;2022-10-10T15:22:37;4.88;;;3.00;;
58360;SDS011;44164;44.954;10.068;2022-10-10T15:25:04;3.53;;;2.35;;
58360;SDS011;44164;44.954;10.068;2022-10-10T15:27:32;3.10;;;2.58;;
58360;SDS011;44164;44.954;10.068;2022-10-10T15:29:58;4.45;;;2.90;;
58360;SDS011;44164;44.954;10.068;2022-10-10T15:32:25;3.55;;;2.22;;
58360;SDS011;44164;44.954;10.068;2022-10-10T15:34:51;5.10;;;2.95;;
58360;SDS011;44164;44.954;10.068;2022-10-10T15:37:17;4.10;;;2.40;;
58360;SDS011;44164;44.954;10.068;2022-10-10T15:39:44;4.75;;;2.90;;
58360;SDS011;44164;44.954;10.068;2022-10-10T15:42:11;3.95;;;2.33;;
58360;SDS011;44164;44.954;10.068;2022-10-10T15:44:39;4.70;;;2.63;;
58360;SDS011;44164;44.954;10.068;2022-10-10T15:47:09;4.35;;;2.70;;
58360;SDS011;44164;44.954;10.068;2022-10-10T15:49:37;3.92;;;2.50;;
58360;SDS011;44164;44.954;10.068;2022-10-10T15:52:04;6.65;;;2.78;;
58360;SDS011;44164;44.954;10.068;2022-10-10T15:54:30;5.03;;;2.90;;
58360;SDS011;44164;44.954;10.068;2022-10-10T15:56:56;4.25;;;2.70;;
58360;SDS011;44164;44.954;10.068;2022-10-10T15:59:22;3.25;;;1.90;;
58360;SDS011;44164;44.954;10.068;2022-10-10T16:01:48;4.60;;;2.83;;
58360;SDS011;44164;44.954;10.068;2022-10-10T16:04:14;5.00;;;2.78;;
58360;SDS011;44164;44.954;10.068;2022-10-10T16:06:40;3.58;;;2.58;;
58360;SDS011;44164;44.954;10.068;2022-10-10T16:09:06;3.38;;;2.30;;
58360;SDS011;44164;44.954;10.068;2022-10-10T16:11:32;3.38;;;2.30;;
58360;SDS011;44164;44.954;10.068;2022-10-10T16:14:01;3.45;;;2.42;;
58360;SDS011;44164;44.954;10.068;2022-10-10T16:16:27;5.43;;;2.67;;
58360;SDS011;44164;44.954;10.068;2022-10-10T16:18:53;5.13;;;2.80;;
58360;SDS011;44164;44.954;10.068;2022-10-10T16:21:21;3.70;;;2.28;;
58360;SDS011;44164;44.954;10.068;2022-10-10T16:23:49;5.35;;;2.80;;
58360;SDS011;44164;44.954;10.068;2022-10-10T16:28:43;3.87;;;2.43;;
58360;SDS011;44164;44.954;10.068;2022-10-10T16:31:11;2.92;;;2.40;;
58360;SDS011;44164;44.954;10.068;2022-10-10T16:33:38;5.65;;;3.10;;
58360;SDS011;44164;44.954;10.068;2022-10-10T16:36:12;3.45;;;2.63;;
58360;SDS011;44164;44.954;10.068;2022-10-10T16:38:48;6.47;;;3.13;;
58360;SDS011;44164;44.954;10.068;2022-10-10T16:41:16;7.22;;;2.75;;
58360;SDS011;44164;44.954;10.068;2022-10-10T16:43:44;6.00;;;3.30;;
58360;SDS011;44164;44.954;10.068;2022-10-10T16:46:16;5.68;;;3.70;;
58360;SDS011;44164;44.954;10.068;2022-10-10T16:48:44;4.47;;;3.20;;
58360;SDS011;44164;44.954;10.068;2022-10-10T16:51:12;9.73;;;3.45;;
58360;SDS011;44164;44.954;10.068;2022-10-10T16:53:39;7.15;;;3.60;;
58360;SDS011;44164;44.954;10.068;2022-10-10T16:56:07;6.80;;;3.55;;
58360;SDS011;44164;44.954;10.068;2022-10-10T16:58:36;6.65;;;3.95;;
58360;SDS011;44164;44.954;10.068;2022-10-10T17:01:09;6.47;;;4.47;;
58360;SDS011;44164;44.954;10.068;2022-10-10T17:03:40;7.23;;;4.40;;
58360;SDS011;44164;44.954;10.068;2022-10-10T17:06:07;8.38;;;4.47;;
58360;SDS011;44164;44.954;10.068;2022-10-10T17:08:38;9.93;;;5.15;;
58360;SDS011;44164;44.954;10.068;2022-10-10T17:11:05;8.35;;;4.93;;
58360;SDS011;44164;44.954;10.068;2022-10-10T17:13:33;6.47;;;4.68;;
58360;SDS011;44164;44.954;10.068;2022-10-10T17:16:02;7.55;;;5.05;;
58360;SDS011;44164;44.954;10.068;2022-10-10T17:18:38;8.57;;;4.82;;
58360;SDS011;44164;44.954;10.068;2022-10-10T17:21:08;12.38;;;5.32;;